createdAt,value
2018-02-22T00:01:27.994Z,17.40
2018-02-22T00:03:56.445Z,19.17
2018-02-22T00:06:24.833Z,17.83
2018-02-22T00:08:53.233Z,18.27
2018-02-22T00:11:22.409Z,18.23
2018-02-22T00:13:50.789Z,18.27
2018-02-22T00:16:19.194Z,18.40
2018-02-22T00:18:47.572Z,17.60
2018-02-22T00:21:15.961Z,18.30
2018-02-22T00:23:44.373Z,18.50
2018-02-22T00:26:12.794Z,17.23
2018-02-22T00:28:41.191Z,18.40
2018-02-22T00:31:09.597Z,16.30
2018-02-22T00:33:38.046Z,17.63
2018-02-22T00:36:06.449Z,17.53
2018-02-22T00:38:35.597Z,17.30
2018-02-22T00:41:03.997Z,18.80
2018-02-22T00:43:32.381Z,17.60
2018-02-22T00:46:00.819Z,18.07
2018-02-22T00:48:29.215Z,17.17
2018-02-22T00:50:57.585Z,20.47
2018-02-22T00:53:26.001Z,17.43
2018-02-22T00:55:54.438Z,17.90
2018-02-22T00:58:22.817Z,17.57
2018-02-22T01:00:51.244Z,20.03
2018-02-22T01:03:20.405Z,20.57
2018-02-22T01:05:48.852Z,19.47
2018-02-22T01:08:17.290Z,18.73
2018-02-22T01:10:45.670Z,20.87
2018-02-22T01:13:14.833Z,21.40
2018-02-22T01:15:43.231Z,19.73
2018-02-22T01:18:11.632Z,19.90
2018-02-22T01:20:40.781Z,21.00
2018-02-22T01:23:09.162Z,20.60
2018-02-22T01:25:37.555Z,20.37
2018-02-22T01:28:06.018Z,21.30
2018-02-22T01:30:34.406Z,22.90
2018-02-22T01:33:02.833Z,21.00
2018-02-22T01:35:32.001Z,20.70
2018-02-22T01:38:00.378Z,21.40
2018-02-22T01:40:28.761Z,22.73
2018-02-22T01:42:57.195Z,21.40
2018-02-22T01:45:25.597Z,21.13
2018-02-22T01:47:53.986Z,23.63
2018-02-22T01:50:22.424Z,22.50
2018-02-22T01:52:50.792Z,22.77
2018-02-22T01:55:19.943Z,21.83
2018-02-22T01:57:48.348Z,20.60
2018-02-22T02:00:16.713Z,20.60
2018-02-22T02:02:45.134Z,22.00
2018-02-22T02:05:13.547Z,22.63
2018-02-22T02:07:41.917Z,23.67
2018-02-22T02:10:10.371Z,22.27
2018-02-22T02:12:38.773Z,22.00
2018-02-22T02:15:07.181Z,22.50
2018-02-22T02:17:35.568Z,20.97
2018-02-22T02:20:03.992Z,22.20
2018-02-22T02:22:32.394Z,21.47
2018-02-22T02:25:00.772Z,21.60
2018-02-22T02:27:29.179Z,23.83
2018-02-22T02:29:57.576Z,21.90
2018-02-22T02:32:25.982Z,21.87
2018-02-22T02:34:54.372Z,23.73
2018-02-22T02:37:22.819Z,22.40
2018-02-22T02:39:51.971Z,22.37
2018-02-22T02:42:20.484Z,22.63
2018-02-22T02:44:48.829Z,19.57
2018-02-22T02:47:17.233Z,22.60
2018-02-22T02:49:45.658Z,20.27
2018-02-22T02:52:14.043Z,22.67
2018-02-22T02:54:42.439Z,22.53
2018-02-22T02:57:10.849Z,23.23
2018-02-22T02:59:39.250Z,23.80
2018-02-22T03:02:08.390Z,19.90
2018-02-22T03:04:36.799Z,22.67
2018-02-22T03:07:05.232Z,23.33
2018-02-22T03:09:33.618Z,21.67
2018-02-22T03:12:02.009Z,22.43
2018-02-22T03:14:30.400Z,22.80
2018-02-22T03:16:58.789Z,23.57
2018-02-22T03:19:27.196Z,25.10
2018-02-22T03:21:56.440Z,24.67
2018-02-22T03:24:24.935Z,25.17
2018-02-22T03:26:53.345Z,25.80
2018-02-22T03:29:21.786Z,24.33
2018-02-22T03:31:50.181Z,23.43
2018-02-22T03:34:18.582Z,25.20
2018-02-22T03:36:46.961Z,24.97
2018-02-22T03:39:16.141Z,24.43
2018-02-22T03:41:44.537Z,27.07
2018-02-22T03:44:12.909Z,25.13
2018-02-22T03:46:41.345Z,24.40
2018-02-22T03:49:09.721Z,25.20
2018-02-22T03:51:38.127Z,25.43
2018-02-22T03:54:06.519Z,23.87
2018-02-22T03:56:34.910Z,23.40
2018-02-22T03:59:03.342Z,24.53
2018-02-22T04:01:31.738Z,25.67
2018-02-22T04:04:00.148Z,24.77
2018-02-22T04:06:28.518Z,26.27
2018-02-22T04:08:56.915Z,24.80
2018-02-22T04:11:26.083Z,24.53
2018-02-22T04:13:54.474Z,25.03
2018-02-22T04:16:22.887Z,23.63
2018-02-22T04:18:51.255Z,24.80
2018-02-22T04:21:20.449Z,25.93
2018-02-22T04:23:49.618Z,26.60
2018-02-22T04:26:18.008Z,24.27
2018-02-22T04:28:46.400Z,26.83
2018-02-22T04:31:14.773Z,26.33
2018-02-22T04:33:43.174Z,27.70
2018-02-22T04:36:11.575Z,28.77
2018-02-22T04:38:40.787Z,29.50
2018-02-22T04:41:09.933Z,31.27
2018-02-22T04:43:39.077Z,29.63
2018-02-22T04:46:07.473Z,30.10
2018-02-22T04:48:35.917Z,32.37
2018-02-22T04:51:04.410Z,28.33
2018-02-22T04:53:32.783Z,29.70
2018-02-22T04:56:01.189Z,29.50
2018-02-22T04:58:29.590Z,30.53
2018-02-22T05:00:58.820Z,29.57
2018-02-22T05:03:27.244Z,27.77
2018-02-22T05:05:55.646Z,29.77
2018-02-22T05:08:24.798Z,30.80
2018-02-22T05:10:53.208Z,31.73
2018-02-22T05:13:21.603Z,30.60
2018-02-22T05:15:49.979Z,30.43
2018-02-22T05:18:18.397Z,31.60
2018-02-22T05:20:46.797Z,32.90
2018-02-22T05:23:15.172Z,34.00
2018-02-22T05:25:43.585Z,32.30
2018-02-22T05:28:11.959Z,34.77
2018-02-22T05:30:41.138Z,32.23
2018-02-22T05:33:09.563Z,35.70
2018-02-22T05:35:38.705Z,31.27
2018-02-22T05:38:07.089Z,35.80
2018-02-22T05:40:35.491Z,35.03
2018-02-22T05:43:03.941Z,31.80
2018-02-22T05:45:32.317Z,35.03
2018-02-22T05:48:00.812Z,33.67
2018-02-22T05:50:29.200Z,35.97
2018-02-22T05:52:57.599Z,33.37
2018-02-22T05:55:25.986Z,35.37
2018-02-22T05:57:54.414Z,33.80
2018-02-22T06:00:22.809Z,36.70
2018-02-22T06:02:51.217Z,35.33
2018-02-22T06:05:20.456Z,35.10
2018-02-22T06:07:48.869Z,36.27
2018-02-22T06:10:17.287Z,36.90
2018-02-22T06:12:46.433Z,37.27
2018-02-22T06:15:14.813Z,35.70
2018-02-22T06:17:43.240Z,37.07
2018-02-22T06:20:12.538Z,33.93
2018-02-22T06:22:40.791Z,36.30
2018-02-22T06:25:09.189Z,34.23
2018-02-22T06:27:38.369Z,35.70
2018-02-22T06:30:06.773Z,32.60
2018-02-22T06:32:35.909Z,34.73
2018-02-22T06:35:04.322Z,38.60
2018-02-22T06:37:32.723Z,36.50
2018-02-22T06:40:01.159Z,34.93
2018-02-22T06:42:29.586Z,34.00
2018-02-22T06:44:58.730Z,33.67
2018-02-22T06:47:27.126Z,34.73
2018-02-22T06:49:55.534Z,38.80
2018-02-22T06:52:24.725Z,33.57
2018-02-22T06:54:53.097Z,37.13
2018-02-22T06:57:21.508Z,38.10
2018-02-22T06:59:49.887Z,32.80
2018-02-22T07:02:18.272Z,34.50
2018-02-22T07:04:46.695Z,34.60
2018-02-22T07:07:15.090Z,37.80
2018-02-22T07:09:43.460Z,36.33
2018-02-22T07:12:11.866Z,35.47
2018-02-22T07:14:40.996Z,34.43
2018-02-22T07:17:09.385Z,34.00
2018-02-22T07:19:37.806Z,33.67
2018-02-22T07:22:06.183Z,31.60
2018-02-22T07:24:34.552Z,35.80
2018-02-22T07:27:02.968Z,33.67
2018-02-22T07:29:31.352Z,33.53
2018-02-22T07:31:59.773Z,34.63
2018-02-22T07:34:28.153Z,34.30
2018-02-22T07:36:56.519Z,32.63
2018-02-22T07:39:24.933Z,34.97
2018-02-22T07:41:53.322Z,33.47
2018-02-22T07:44:22.475Z,33.60
2018-02-22T07:46:50.884Z,33.20
2018-02-22T07:49:19.281Z,33.53
2018-02-22T07:51:48.422Z,33.97
2018-02-22T07:54:16.811Z,36.03
2018-02-22T07:56:45.206Z,32.93
2018-02-22T07:59:13.605Z,32.23
2018-02-22T08:01:41.992Z,31.77
2018-02-22T08:04:11.168Z,34.60
2018-02-22T08:06:39.571Z,36.70
2018-02-22T08:09:08.714Z,35.60
2018-02-22T08:11:37.133Z,33.37
2018-02-22T08:14:06.284Z,36.20
2018-02-22T08:16:34.655Z,36.33
2018-02-22T08:19:03.084Z,35.30
2018-02-22T08:21:31.522Z,36.70
2018-02-22T08:23:59.923Z,37.63
2018-02-22T08:26:28.395Z,37.43
2018-02-22T08:28:56.793Z,39.77
2018-02-22T08:31:25.212Z,36.33
2018-02-22T08:33:53.590Z,37.60
2018-02-22T08:36:21.968Z,36.27
2018-02-22T08:38:50.375Z,34.30
2018-02-22T08:41:18.777Z,37.43
2018-02-22T08:43:47.151Z,37.70
2018-02-22T08:46:15.602Z,34.70
2018-02-22T08:48:43.990Z,36.90
2018-02-22T08:51:12.370Z,34.43
2018-02-22T08:53:40.797Z,36.23
2018-02-22T08:56:09.942Z,33.10
2018-02-22T08:58:38.340Z,35.73
2018-02-22T09:01:07.473Z,35.67
2018-02-22T09:03:36.659Z,34.67
2018-02-22T09:06:05.813Z,33.67
2018-02-22T09:08:34.182Z,34.00
2018-02-22T09:11:02.582Z,33.90
2018-02-22T09:13:30.965Z,35.37
2018-02-22T09:15:59.339Z,33.80
2018-02-22T09:18:27.745Z,34.87
2018-02-22T09:20:56.143Z,32.03
2018-02-22T09:23:25.283Z,33.60
2018-02-22T09:25:53.654Z,34.67
2018-02-22T09:28:22.071Z,35.07
2018-02-22T09:30:50.449Z,35.83
2018-02-22T09:33:18.882Z,32.97
2018-02-22T09:35:47.262Z,34.53
2018-02-22T09:38:15.626Z,32.67
2018-02-22T09:40:44.027Z,32.00
2018-02-22T09:43:12.479Z,30.80
2018-02-22T09:45:40.887Z,31.57
2018-02-22T09:48:09.290Z,32.00
2018-02-22T09:50:37.686Z,30.90
2018-02-22T09:53:06.085Z,34.67
2018-02-22T09:55:35.237Z,32.43
2018-02-22T09:58:04.367Z,31.30
2018-02-22T10:00:32.751Z,35.23
2018-02-22T10:03:01.893Z,31.53
2018-02-22T10:05:30.283Z,31.50
2018-02-22T10:07:58.651Z,30.23
2018-02-22T10:10:27.057Z,31.30
2018-02-22T10:12:55.421Z,33.60
2018-02-22T10:15:23.816Z,31.23
2018-02-22T10:17:52.189Z,30.93
2018-02-22T10:20:20.573Z,33.20
2018-02-22T10:22:48.980Z,34.27
2018-02-22T10:25:18.124Z,33.10
2018-02-22T10:27:46.521Z,30.93
2018-02-22T10:30:14.906Z,29.90
2018-02-22T10:32:43.285Z,29.60
2018-02-22T10:35:11.670Z,28.40
2018-02-22T10:37:40.064Z,30.03
2018-02-22T10:40:09.203Z,32.70
2018-02-22T10:42:37.567Z,31.73
2018-02-22T10:45:06.011Z,30.70
2018-02-22T10:47:34.391Z,30.70
2018-02-22T10:50:02.766Z,31.23
2018-02-22T10:52:31.173Z,25.70
2018-02-22T10:54:59.560Z,29.80
2018-02-22T10:57:27.924Z,28.97
2018-02-22T10:59:56.333Z,29.90
2018-02-22T11:02:30.358Z,30.80
2018-02-22T11:04:58.760Z,30.40
2018-02-22T11:07:27.149Z,30.87
2018-02-22T11:09:55.532Z,32.30
2018-02-22T11:12:24.725Z,30.87
2018-02-22T11:14:53.132Z,30.43
2018-02-22T11:17:21.518Z,27.70
2018-02-22T11:19:49.888Z,27.70
2018-02-22T11:22:18.301Z,27.80
2018-02-22T11:24:46.666Z,27.50
2018-02-22T11:27:15.291Z,29.80
2018-02-22T11:29:43.951Z,28.90
2018-02-22T11:32:12.409Z,25.63
2018-02-22T11:34:40.810Z,27.80
2018-02-22T11:37:09.946Z,28.30
2018-02-22T11:39:38.401Z,27.30
2018-02-22T11:42:06.834Z,27.07
2018-02-22T11:44:35.214Z,28.30
2018-02-22T11:47:03.596Z,25.00
2018-02-22T11:49:32.006Z,24.23
2018-02-22T11:52:00.378Z,26.73
2018-02-22T11:54:28.779Z,25.43
2018-02-22T11:56:57.173Z,23.23
2018-02-22T11:59:25.601Z,25.47
2018-02-22T12:01:53.984Z,25.80
2018-02-22T12:04:22.352Z,24.50
2018-02-22T12:06:50.760Z,25.80
2018-02-22T12:09:19.135Z,25.90
2018-02-22T12:11:47.485Z,27.00
2018-02-22T12:14:15.894Z,27.07
2018-02-22T12:16:44.273Z,22.23
2018-02-22T12:19:12.650Z,21.67
2018-02-22T12:21:41.052Z,23.40
2018-02-22T12:24:09.463Z,22.97
2018-02-22T12:26:37.865Z,23.53
2018-02-22T12:29:06.267Z,21.70
2018-02-22T12:31:35.423Z,14.90
2018-02-22T12:34:03.802Z,14.73
2018-02-22T12:36:32.195Z,14.20
2018-02-22T12:39:00.574Z,15.20
2018-02-22T12:41:29.032Z,14.80
2018-02-22T12:43:58.199Z,16.47
2018-02-22T12:46:26.558Z,14.23
2018-02-22T12:48:54.982Z,14.70
2018-02-22T12:51:24.121Z,15.13
2018-02-22T12:53:52.518Z,14.03
2018-02-22T12:56:20.931Z,17.63
2018-02-22T12:58:50.062Z,15.63
2018-02-22T13:01:18.467Z,13.90
2018-02-22T13:03:46.836Z,12.37
2018-02-22T13:06:15.210Z,13.97
2018-02-22T13:08:43.605Z,13.50
2018-02-22T13:11:11.983Z,14.13
2018-02-22T13:13:40.394Z,14.67
2018-02-22T13:16:09.527Z,13.30
2018-02-22T13:18:37.918Z,15.00
2018-02-22T13:21:06.297Z,14.87
2018-02-22T13:23:34.693Z,12.87
2018-02-22T13:26:03.062Z,14.53
2018-02-22T13:28:31.456Z,13.37
2018-02-22T13:30:59.867Z,13.07
2018-02-22T13:33:46.798Z,13.10
2018-02-22T13:36:15.223Z,13.47
2018-02-22T13:39:01.322Z,11.93
2018-02-22T13:41:29.728Z,10.97
2018-02-22T13:44:16.677Z,11.60
2018-02-22T13:46:45.085Z,10.90
2018-02-22T13:49:31.288Z,11.97
2018-02-22T13:51:59.665Z,10.63
2018-02-22T13:54:28.105Z,10.90
2018-02-22T13:57:14.152Z,9.37
2018-02-22T13:59:42.545Z,9.27
2018-02-22T14:02:25.175Z,8.90
2018-02-22T14:04:53.596Z,8.40
2018-02-22T14:07:22.044Z,9.60
2018-02-22T14:09:50.420Z,9.87
2018-02-22T14:12:18.825Z,9.57
2018-02-22T14:14:47.208Z,8.63
2018-02-22T14:17:15.581Z,7.93
2018-02-22T14:19:43.997Z,6.90
2018-02-22T14:22:12.393Z,6.60
2018-02-22T14:24:41.544Z,7.37
2018-02-22T14:27:09.914Z,8.60
2018-02-22T14:29:38.301Z,8.77
2018-02-22T14:32:06.698Z,11.70
2018-02-22T14:34:35.101Z,10.57
2018-02-22T14:37:04.230Z,10.73
2018-02-22T14:39:32.637Z,13.07
2018-02-22T14:42:00.999Z,12.67
2018-02-22T14:44:29.402Z,11.53
2018-02-22T14:46:57.813Z,11.60
2018-02-22T14:49:26.945Z,10.63
2018-02-22T14:51:55.314Z,11.40
2018-02-22T14:54:23.701Z,12.87
2018-02-22T14:56:52.093Z,12.90
2018-02-22T14:59:20.513Z,12.70
2018-02-22T15:01:48.913Z,11.77
2018-02-22T15:04:17.303Z,11.63
2018-02-22T15:06:45.730Z,10.50
2018-02-22T15:09:14.098Z,12.50
2018-02-22T15:11:42.486Z,11.20
2018-02-22T15:14:10.899Z,12.13
2018-02-22T15:16:40.039Z,13.33
2018-02-22T15:19:08.458Z,13.47
2018-02-22T15:21:36.861Z,12.17
2018-02-22T15:24:05.321Z,11.20
2018-02-22T15:26:33.874Z,8.53
2018-02-22T15:29:02.261Z,9.67
2018-02-22T15:31:30.911Z,12.87
2018-02-22T15:33:59.609Z,10.20
2018-02-22T15:36:28.006Z,10.13
2018-02-22T15:38:56.366Z,14.17
2018-02-22T15:41:24.733Z,10.43
2018-02-22T15:43:53.146Z,10.70
2018-02-22T15:46:21.565Z,10.13
2018-02-22T15:48:49.925Z,9.97
2018-02-22T15:51:18.292Z,10.80
2018-02-22T15:53:47.848Z,11.27
2018-02-22T15:56:17.061Z,11.10
2018-02-22T15:58:46.112Z,11.97
2018-02-22T16:01:14.738Z,11.30
2018-02-22T16:03:43.286Z,9.77
2018-02-22T16:06:11.689Z,11.77
2018-02-22T16:08:40.095Z,12.23
2018-02-22T16:11:08.523Z,10.13
2018-02-22T16:13:37.654Z,10.50
2018-02-22T16:16:06.156Z,12.00
2018-02-22T16:18:34.641Z,10.10
2018-02-22T16:21:03.018Z,11.00
2018-02-22T16:23:31.385Z,10.93
2018-02-22T16:25:59.851Z,11.50
2018-02-22T16:28:28.257Z,11.60
2018-02-22T16:30:56.634Z,12.70
2018-02-22T16:33:25.006Z,13.03
2018-02-22T16:35:53.405Z,12.87
2018-02-22T16:38:21.940Z,12.97
2018-02-22T16:40:50.333Z,15.03
2018-02-22T16:43:18.734Z,16.40
2018-02-22T16:45:47.198Z,16.00
2018-02-22T16:48:15.674Z,14.60
2018-02-22T16:50:44.057Z,13.97
2018-02-22T16:53:12.588Z,25.57
2018-02-22T16:55:41.727Z,18.00
2018-02-22T16:58:10.107Z,19.30
2018-02-22T17:00:38.656Z,17.50
2018-02-22T17:03:07.040Z,15.20
2018-02-22T17:05:35.446Z,16.30
2018-02-22T17:08:03.817Z,15.60
2018-02-22T17:10:32.352Z,14.53
2018-02-22T17:13:01.632Z,15.63
2018-02-22T17:15:30.047Z,16.00
2018-02-22T17:17:58.458Z,15.33
2018-02-22T17:20:26.886Z,14.60
2018-02-22T17:22:55.292Z,14.87
2018-02-22T17:25:23.082Z,13.23
2018-02-22T17:27:56.938Z,15.40
2018-02-22T17:30:30.889Z,15.80
2018-02-22T17:32:59.266Z,14.57
2018-02-22T17:38:51.862Z,15.37
2018-02-22T17:41:35.101Z,14.40
2018-02-22T17:44:03.497Z,16.23
2018-02-22T17:46:31.878Z,15.70
2018-02-22T17:49:00.245Z,15.40
2018-02-22T17:51:28.639Z,16.20
2018-02-22T17:53:57.020Z,14.67
2018-02-22T17:56:25.408Z,15.20
2018-02-22T17:58:53.771Z,16.77
2018-02-22T18:01:22.142Z,16.80
2018-02-22T18:03:50.529Z,16.60
2018-02-22T18:06:18.890Z,16.40
2018-02-22T18:08:47.274Z,16.70
2018-02-22T18:11:15.658Z,17.67
2018-02-22T18:13:44.025Z,16.33
2018-02-22T18:16:12.419Z,18.93
2018-02-22T18:18:40.793Z,17.77
2018-02-22T18:21:09.153Z,18.70
2018-02-22T18:23:37.546Z,17.97
2018-02-22T18:26:06.195Z,17.23
2018-02-22T18:28:35.370Z,16.17
2018-02-22T18:31:03.742Z,17.57
2018-02-22T18:33:32.102Z,17.07
2018-02-22T18:36:00.494Z,18.70
2018-02-22T18:38:28.885Z,19.40
2018-02-22T18:41:00.213Z,25.30
2018-02-22T18:43:34.512Z,19.40
2018-02-22T18:46:02.942Z,20.17
2018-02-22T18:48:31.310Z,18.70
2018-02-22T18:50:59.674Z,20.80
2018-02-22T18:53:28.065Z,20.70
2018-02-22T18:55:56.450Z,20.13
2018-02-22T18:58:24.814Z,20.33
2018-02-22T19:00:53.207Z,20.50
2018-02-22T19:03:21.765Z,20.67
2018-02-22T19:05:50.329Z,20.77
2018-02-22T19:08:18.718Z,20.40
2018-02-22T19:10:47.080Z,21.47
2018-02-22T19:13:15.464Z,21.00
2018-02-22T19:15:43.835Z,20.07
2018-02-22T19:18:12.317Z,20.27
2018-02-22T19:20:40.876Z,22.00
2018-02-22T19:23:09.426Z,19.77
2018-02-22T19:25:37.786Z,22.87
2018-02-22T19:28:06.929Z,20.60
2018-02-22T19:30:36.073Z,21.27
2018-02-22T19:33:04.437Z,20.30
2018-02-22T19:35:32.820Z,19.57
2018-02-22T19:38:01.178Z,21.53
2018-02-22T19:40:30.346Z,22.53
2018-02-22T19:42:58.710Z,19.77
2018-02-22T19:45:27.093Z,21.90
2018-02-22T19:47:55.454Z,21.63
2018-02-22T19:50:23.841Z,21.83
2018-02-22T19:52:52.230Z,22.00
2018-02-22T19:55:20.589Z,22.47
2018-02-22T19:57:48.986Z,22.40
2018-02-22T20:00:17.350Z,21.77
2018-02-22T20:02:45.706Z,21.90
2018-02-22T20:05:14.125Z,22.57
2018-02-22T20:07:42.531Z,24.90
2018-02-22T20:10:11.661Z,22.10
2018-02-22T20:12:40.041Z,24.47
2018-02-22T20:15:08.438Z,23.00
2018-02-22T20:17:36.797Z,22.07
2018-02-22T20:20:05.166Z,21.77
2018-02-22T20:22:33.551Z,23.07
2018-02-22T20:25:01.909Z,22.20
2018-02-22T20:27:30.267Z,22.33
2018-02-22T20:29:58.653Z,22.57
2018-02-22T20:32:27.784Z,23.40
2018-02-22T20:34:56.156Z,22.70
2018-02-22T20:37:24.541Z,23.93
2018-02-22T20:39:52.902Z,24.60
2018-02-22T20:42:22.029Z,25.20
2018-02-22T20:44:50.403Z,24.47
2018-02-22T20:47:18.766Z,25.03
2018-02-22T20:49:47.137Z,23.57
2018-02-22T20:52:16.813Z,25.50
2018-02-22T20:54:50.869Z,25.10
2018-02-22T20:57:19.238Z,22.70
2018-02-22T20:59:48.365Z,26.03
2018-02-22T21:02:16.751Z,22.30
2018-02-22T21:04:45.112Z,24.90
2018-02-22T21:07:13.489Z,25.10
2018-02-22T21:09:41.848Z,24.60
2018-02-22T21:12:10.220Z,23.57
2018-02-22T21:14:39.364Z,24.27
2018-02-22T21:17:07.753Z,22.97
2018-02-22T21:19:36.153Z,24.13
2018-02-22T21:22:04.513Z,25.83
2018-02-22T21:24:32.894Z,23.30
2018-02-22T21:27:01.286Z,23.73
2018-02-22T21:29:29.650Z,22.87
2018-02-22T21:31:58.038Z,25.93
2018-02-22T21:34:26.398Z,22.10
2018-02-22T21:36:54.767Z,21.00
2018-02-22T21:39:23.228Z,22.77
2018-02-22T21:41:51.625Z,23.70
2018-02-22T21:44:19.998Z,23.70
2018-02-22T21:46:48.386Z,22.30
2018-02-22T21:49:16.754Z,22.80
2018-02-22T21:51:45.154Z,22.53
2018-02-22T21:54:13.518Z,22.17
2018-02-22T21:56:41.882Z,21.80
2018-02-22T21:59:10.278Z,24.27
2018-02-22T22:01:38.643Z,22.30
2018-02-22T22:04:07.009Z,23.60
2018-02-22T22:06:35.404Z,22.17
2018-02-22T22:09:03.890Z,22.87
2018-02-22T22:11:32.301Z,22.07
2018-02-22T22:14:00.688Z,22.60
2018-02-22T22:16:29.845Z,22.93
2018-02-22T22:18:58.214Z,24.00
2018-02-22T22:21:26.600Z,24.40
2018-02-22T22:23:55.018Z,25.07
2018-02-22T22:26:23.409Z,22.70
2018-02-22T22:28:51.778Z,25.60
2018-02-22T22:31:20.218Z,24.67
2018-02-22T22:33:48.629Z,26.47
2018-02-22T22:36:17.017Z,28.23
2018-02-22T22:38:45.425Z,26.10
2018-02-22T22:41:14.558Z,21.83
2018-02-22T22:43:43.005Z,21.30
2018-02-22T22:46:12.236Z,23.70
2018-02-22T22:48:40.602Z,21.53
2018-02-22T22:51:09.002Z,21.27
2018-02-22T22:53:37.407Z,20.53
2018-02-22T22:56:05.776Z,19.20
2018-02-22T22:58:34.129Z,20.10
2018-02-22T23:01:02.531Z,18.97
2018-02-22T23:03:30.897Z,17.93
2018-02-22T23:05:59.265Z,19.53
2018-02-22T23:08:27.650Z,16.60
2018-02-22T23:10:56.015Z,18.93
2018-02-22T23:13:24.461Z,17.80
2018-02-22T23:15:52.831Z,18.50
2018-02-22T23:18:21.199Z,17.67
2018-02-22T23:20:49.586Z,18.50
2018-02-22T23:23:17.965Z,18.37
2018-02-22T23:25:46.402Z,16.97
2018-02-22T23:28:14.766Z,17.47
2018-02-22T23:30:43.153Z,17.20
2018-02-22T23:33:11.546Z,17.33
2018-02-22T23:35:39.913Z,15.87
2018-02-22T23:38:08.278Z,15.20
2018-02-22T23:40:42.699Z,14.77
2018-02-22T23:43:11.064Z,15.63
2018-02-22T23:45:40.203Z,15.60
2018-02-22T23:48:08.591Z,16.10
2018-02-22T23:50:36.960Z,16.23
2018-02-22T23:53:05.337Z,16.60
2018-02-22T23:55:33.710Z,16.47
2018-02-22T23:58:02.112Z,16.30
